Terminal Aerodrome Forecast
Issued by NWS Anchorage, AK

Home | Current Version | Previous Version | Text Only | Print | Product List | Glossary On
Versions: 1 2 3 4 5 6 7 8 9 10 11 12 13 14 15 16 17 18 19 20 21 22 23 24
000
FTAK31 PANC 242331
TAFANC
TAF
PANC 242331Z 2500/2606 02005KT P6SM VCSH SCT025 OVC060
     FM260000 02005KT P6SM OVC050 WS020/13032KT=

USA.gov is the U.S. government's official web portal to all federal, state and local government web resources and services.